ENRS/RET METAR and TAF weather

Enter ICAO airport designator
Station Type Date Time Source
ENRS METAR 2022/01/26 08:50 UTC NOAA

ENRS 260850Z 14014KT 9999 -SHRA OVC005 03/02 Q0993


Station Type Date Time Source
ENRS Decoded METAR 2022/01/26 08:50 UTC NOAA

Rost Flyplass, Norway (ENRS) 67-31N 012-06E
Jan 26, 2022 - 03:50 AM EST / 2022.01.26 0850 UTC
Wind: from the SE (140 degrees) at 16 MPH (14 KT):0
Visibility: greater than 7 mile(s):0
Sky conditions: overcast
Weather: light rain showers
Temperature: 37 F (3 C)
Dew Point: 35 F (2 C)
Relative Humidity: 93%
Pressure (altimeter): 29.32 in. Hg (0993 hPa)
ob: ENRS 260850Z 14014KT 9999 -SHRA OVC005 03/02 Q0993
cycle: 9

Station Type Date Time Source
ENRS TAF UTC NOAA

Error!

Example: see airport list